South Haven, Michigan
Current Conditions -  °F | °C
As of 7:15 AM on Monday 20 Oct 2014 (Local Time) from KLWA Reporting Station
Clear Clear  
Wind Chill:   Ceiling: Unl
Heat Index:   Visibility: 10mi
Dew Point:   Wind: 3mph
Humidity: 89%   Direction: 200°SSW
Pressure: 29.81"   Gusts: NA
Location:  42.4°N, 86.27°W
Report Text: KLWA 201115Z AUTO 20003KT 10SM CLR 09/07 A2981 RMK AO2 T00880071
Loading
Personal Weather Stations






























Interactive Weather Map
Tropical Storm Tracking
New forecast layout! Learn more

10-Day Weather Forecast

Advertisements
Track Severe Weather on mobile